createdAt,value
2023-02-25T00:00:35.745Z,30.83
2023-02-25T00:03:02.598Z,43.28
2023-02-25T00:05:31.996Z,39.08
2023-02-25T00:07:59.688Z,40.97
2023-02-25T00:10:27.223Z,33.83
2023-02-25T00:12:56.236Z,40.40
2023-02-25T00:15:23.581Z,39.30
2023-02-25T00:17:50.406Z,39.20
2023-02-25T00:20:19.191Z,35.55
2023-02-25T00:22:46.029Z,36.75
2023-02-25T00:25:14.107Z,41.63
2023-02-25T00:27:41.410Z,43.50
2023-02-25T00:30:10.893Z,43.28
2023-02-25T00:32:38.561Z,39.10
2023-02-25T00:35:06.132Z,41.85
2023-02-25T00:37:33.322Z,37.90
2023-02-25T00:40:00.598Z,39.25
2023-02-25T00:42:28.037Z,37.67
2023-02-25T00:44:55.270Z,18.52
2023-02-25T00:47:22.480Z,29.13
2023-02-25T00:49:49.546Z,29.48
2023-02-25T00:52:16.971Z,25.70
2023-02-25T00:54:44.431Z,23.05
2023-02-25T00:57:11.674Z,22.67
2023-02-25T00:59:38.544Z,22.90
2023-02-25T01:02:05.755Z,18.33
2023-02-25T01:04:33.059Z,16.45
2023-02-25T01:07:01.774Z,14.43
2023-02-25T01:09:30.036Z,12.43
2023-02-25T01:11:56.869Z,10.98
2023-02-25T01:14:25.530Z,9.60
2023-02-25T01:16:53.192Z,9.13
2023-02-25T01:19:23.570Z,9.48
2023-02-25T01:21:54.149Z,7.80
2023-02-25T01:24:23.980Z,13.27
2023-02-25T01:26:54.721Z,12.52
2023-02-25T01:29:29.207Z,12.27
2023-02-25T01:31:58.870Z,12.88
2023-02-25T01:34:26.949Z,8.07
2023-02-25T01:36:54.233Z,7.93
2023-02-25T01:39:22.809Z,9.23
2023-02-25T01:41:53.467Z,9.88
2023-02-25T01:44:32.890Z,9.57
2023-02-25T01:47:01.476Z,11.43
2023-02-25T01:49:31.457Z,9.55
2023-02-25T01:52:22.257Z,11.45
2023-02-25T01:54:52.521Z,7.95
2023-02-25T01:57:20.124Z,9.98
2023-02-25T01:59:48.637Z,9.65
2023-02-25T02:02:19.848Z,7.38
2023-02-25T02:04:50.279Z,7.88
2023-02-25T02:07:18.826Z,10.60
2023-02-25T02:09:56.120Z,8.45
2023-02-25T02:12:29.231Z,8.10
2023-02-25T02:14:58.602Z,8.52
2023-02-25T02:17:30.424Z,8.43
2023-02-25T02:20:21.017Z,8.77
2023-02-25T02:23:06.373Z,10.43
2023-02-25T02:25:41.836Z,7.43
2023-02-25T02:28:42.500Z,6.90
2023-02-25T02:31:47.092Z,8.68
2023-02-25T02:34:16.857Z,9.77
2023-02-25T02:36:54.158Z,7.38
2023-02-25T02:39:32.819Z,10.77
2023-02-25T02:42:02.459Z,10.43
2023-02-25T02:45:01.207Z,10.95
2023-02-25T02:47:44.061Z,10.85
2023-02-25T02:50:33.956Z,13.35
2023-02-25T02:53:07.945Z,13.70
2023-02-25T02:55:39.250Z,14.82
2023-02-25T02:58:22.286Z,13.98
2023-02-25T03:00:57.977Z,13.35
2023-02-25T03:03:36.577Z,19.05
2023-02-25T03:06:11.133Z,19.25
2023-02-25T03:08:48.221Z,20.17
2023-02-25T03:11:15.811Z,23.20
2023-02-25T03:13:42.710Z,18.85
2023-02-25T03:16:15.372Z,16.95
2023-02-25T03:18:49.034Z,20.92
2023-02-25T03:21:21.852Z,19.38
2023-02-25T03:23:49.141Z,18.38
2023-02-25T03:26:31.130Z,21.33
2023-02-25T03:28:58.691Z,22.25
2023-02-25T03:31:35.088Z,18.77
2023-02-25T03:34:10.215Z,21.08
2023-02-25T03:36:42.623Z,18.80
2023-02-25T03:39:19.638Z,17.52
2023-02-25T03:41:51.473Z,20.83
2023-02-25T03:44:23.906Z,22.52
2023-02-25T03:46:51.722Z,21.80
2023-02-25T03:49:27.275Z,19.05
2023-02-25T03:51:56.880Z,23.63
2023-02-25T03:54:24.088Z,23.77
2023-02-25T03:56:51.791Z,24.80
2023-02-25T03:59:19.691Z,21.70
2023-02-25T04:01:49.880Z,24.73
2023-02-25T04:04:17.184Z,23.20
2023-02-25T04:06:44.737Z,24.13
2023-02-25T04:09:12.184Z,23.38
2023-02-25T04:11:39.402Z,23.27
2023-02-25T04:14:06.357Z,26.60
2023-02-25T04:16:33.286Z,22.92
2023-02-25T04:19:00.135Z,20.75
2023-02-25T04:21:35.952Z,16.42
2023-02-25T04:24:05.652Z,21.30
2023-02-25T04:26:33.336Z,20.85
2023-02-25T04:29:00.626Z,20.52
2023-02-25T04:31:28.140Z,24.05
2023-02-25T04:33:58.032Z,21.15
2023-02-25T04:36:29.528Z,17.23
2023-02-25T04:38:57.871Z,26.20
2023-02-25T04:41:28.334Z,40.90
2023-02-25T04:43:55.254Z,42.45
2023-02-25T04:46:22.792Z,39.20
2023-02-25T04:48:49.883Z,42.67
2023-02-25T04:51:17.221Z,34.50
2023-02-25T04:53:44.106Z,38.75
2023-02-25T04:56:11.368Z,39.55
2023-02-25T04:58:38.491Z,38.85
2023-02-25T05:01:07.800Z,33.15
2023-02-25T05:03:35.335Z,36.50
2023-02-25T05:06:02.978Z,35.17
2023-02-25T05:08:30.181Z,32.83
2023-02-25T05:10:57.458Z,25.20
2023-02-25T05:13:24.460Z,26.80
2023-02-25T05:15:51.894Z,24.77
2023-02-25T05:18:19.243Z,26.52
2023-02-25T05:20:48.231Z,23.33
2023-02-25T05:23:15.121Z,18.92
2023-02-25T05:25:41.968Z,22.55
2023-02-25T05:28:10.956Z,20.48
2023-02-25T05:30:39.003Z,22.50
2023-02-25T05:33:09.247Z,20.85
2023-02-25T05:35:40.128Z,23.58
2023-02-25T05:38:06.936Z,20.33
2023-02-25T05:40:36.229Z,21.25
2023-02-25T05:43:03.568Z,16.77
2023-02-25T05:45:30.806Z,18.45
2023-02-25T05:47:58.034Z,19.02
2023-02-25T05:50:24.924Z,18.10
2023-02-25T05:52:52.145Z,16.77
2023-02-25T05:55:19.369Z,18.50
2023-02-25T05:57:46.773Z,21.33
2023-02-25T06:00:15.178Z,24.00
2023-02-25T06:02:44.331Z,21.23
2023-02-25T06:05:11.400Z,21.75
2023-02-25T06:07:38.679Z,22.42
2023-02-25T06:10:06.256Z,21.30
2023-02-25T06:12:34.062Z,22.88
2023-02-25T06:15:01.634Z,22.85
2023-02-25T06:17:28.947Z,22.23
2023-02-25T06:19:56.388Z,25.05
2023-02-25T06:22:24.589Z,21.42
2023-02-25T06:24:51.425Z,21.65
2023-02-25T06:27:19.205Z,25.48
2023-02-25T06:29:48.830Z,28.05
2023-02-25T06:32:16.287Z,20.27
2023-02-25T06:34:43.606Z,27.15
2023-02-25T06:37:10.586Z,24.15
2023-02-25T06:39:37.859Z,28.13
2023-02-25T06:42:06.871Z,20.92
2023-02-25T06:44:34.081Z,21.58
2023-02-25T06:47:00.992Z,21.45
2023-02-25T06:49:28.267Z,18.17
2023-02-25T06:51:55.539Z,16.95
2023-02-25T06:54:22.375Z,23.95
2023-02-25T06:56:49.669Z,22.02
2023-02-25T06:59:16.510Z,20.05
2023-02-25T07:01:43.710Z,18.92
2023-02-25T07:04:15.649Z,19.38
2023-02-25T07:06:42.886Z,20.13
2023-02-25T07:09:09.834Z,17.80
2023-02-25T07:11:37.136Z,20.63
2023-02-25T07:14:05.183Z,21.05
2023-02-25T07:16:34.329Z,22.55
2023-02-25T07:19:04.651Z,22.40
2023-02-25T07:21:31.977Z,18.10
2023-02-25T07:23:59.369Z,13.52
2023-02-25T07:26:28.704Z,18.42
2023-02-25T07:28:59.834Z,16.67
2023-02-25T07:31:28.935Z,17.40
2023-02-25T07:33:56.543Z,16.40
2023-02-25T07:36:23.862Z,15.30
2023-02-25T07:38:51.480Z,16.10
2023-02-25T07:41:20.164Z,10.00
2023-02-25T07:43:47.480Z,12.82
2023-02-25T07:46:15.041Z,9.32
2023-02-25T07:48:42.130Z,6.20
2023-02-25T07:51:28.121Z,11.20
2023-02-25T07:53:57.641Z,10.70
2023-02-25T07:56:26.221Z,15.43
2023-02-25T07:58:53.151Z,14.73
2023-02-25T08:01:27.549Z,10.07
2023-02-25T08:03:57.499Z,14.15
2023-02-25T08:06:24.849Z,16.20
2023-02-25T08:08:52.260Z,16.20
2023-02-25T08:11:20.162Z,13.35
2023-02-25T08:13:47.561Z,22.50
2023-02-25T08:16:16.364Z,21.50
2023-02-25T08:18:44.049Z,14.02
2023-02-25T08:21:12.836Z,22.75
2023-02-25T08:23:40.068Z,13.98
2023-02-25T08:26:09.810Z,7.78
2023-02-25T08:28:37.518Z,6.95
2023-02-25T08:31:05.354Z,10.32
2023-02-25T08:33:32.773Z,6.20
2023-02-25T08:36:14.753Z,9.77
2023-02-25T08:38:42.588Z,4.55
2023-02-25T08:41:09.737Z,4.55
2023-02-25T08:43:37.441Z,7.28
2023-02-25T08:46:06.632Z,8.68
2023-02-25T08:48:34.871Z,9.20
2023-02-25T08:51:08.585Z,7.95
2023-02-25T08:53:40.170Z,14.10
2023-02-25T08:56:12.594Z,8.65
2023-02-25T08:58:40.628Z,13.48
2023-02-25T09:01:15.284Z,10.38
2023-02-25T09:03:53.653Z,11.43
2023-02-25T09:06:23.725Z,11.32
2023-02-25T09:08:51.853Z,11.88
2023-02-25T09:11:19.903Z,20.73
2023-02-25T09:13:46.840Z,9.80
2023-02-25T09:16:17.679Z,9.25
2023-02-25T09:18:50.412Z,10.45
2023-02-25T09:21:18.470Z,11.25
2023-02-25T09:23:46.777Z,10.27
2023-02-25T09:26:13.954Z,10.02
2023-02-25T09:28:41.211Z,10.18
2023-02-25T09:31:08.443Z,7.82
2023-02-25T09:33:36.250Z,12.50
2023-02-25T09:36:18.269Z,7.25
2023-02-25T09:38:47.144Z,11.73
2023-02-25T09:41:22.347Z,6.25
2023-02-25T09:43:53.795Z,7.50
2023-02-25T09:46:21.247Z,10.05
2023-02-25T09:49:18.225Z,12.43
2023-02-25T09:51:48.096Z,8.60
2023-02-25T09:54:34.421Z,5.05
2023-02-25T09:57:04.618Z,11.10
2023-02-25T09:59:31.801Z,11.10
2023-02-25T10:02:40.524Z,10.15
2023-02-25T10:05:23.876Z,10.02
2023-02-25T10:10:50.153Z,8.07
2023-02-25T10:13:54.885Z,10.07
2023-02-25T10:16:46.201Z,12.73
2023-02-25T10:19:28.800Z,5.70
2023-02-25T10:22:14.658Z,3.92
2023-02-25T10:24:47.480Z,11.60
2023-02-25T10:27:17.292Z,4.88
2023-02-25T10:30:00.113Z,4.40
2023-02-25T10:32:31.471Z,2.83
2023-02-25T10:35:12.213Z,3.78
2023-02-25T10:37:39.029Z,3.38
2023-02-25T10:40:11.329Z,2.10
2023-02-25T10:42:38.795Z,2.67
2023-02-25T10:45:14.786Z,5.07
2023-02-25T10:47:45.012Z,4.13
2023-02-25T10:50:23.142Z,4.20
2023-02-25T10:53:12.489Z,4.43
2023-02-25T10:55:51.395Z,3.45
2023-02-25T10:58:21.286Z,5.72
2023-02-25T11:01:14.838Z,5.45
2023-02-25T11:06:32.852Z,6.45
2023-02-25T11:09:01.026Z,6.05
2023-02-25T11:11:32.259Z,9.15
2023-02-25T11:14:01.010Z,6.43
2023-02-25T11:16:30.100Z,7.05
2023-02-25T11:19:01.963Z,5.95
2023-02-25T11:21:32.766Z,4.80
2023-02-25T11:24:31.357Z,5.30
2023-02-25T11:26:58.942Z,6.55
2023-02-25T11:29:38.419Z,8.80
2023-02-25T11:32:12.699Z,10.93
2023-02-25T11:34:52.219Z,5.63
2023-02-25T11:37:24.815Z,4.28
2023-02-25T11:39:53.659Z,4.13
2023-02-25T11:42:26.646Z,7.10
2023-02-25T11:45:01.227Z,4.00
2023-02-25T11:47:38.915Z,3.42
2023-02-25T11:50:17.902Z,4.82
2023-02-25T11:52:51.829Z,3.35
2023-02-25T11:55:52.364Z,3.97
2023-02-25T11:58:41.008Z,3.30
2023-02-25T12:01:33.698Z,3.22
2023-02-25T12:04:25.469Z,3.13
2023-02-25T12:07:20.640Z,2.35
2023-02-25T12:10:15.273Z,2.55
2023-02-25T12:12:57.085Z,3.78
2023-02-25T12:15:27.021Z,3.10
2023-02-25T12:18:51.249Z,2.20
2023-02-25T12:21:45.688Z,2.80
2023-02-25T12:24:15.281Z,4.63
2023-02-25T12:27:26.743Z,2.08
2023-02-25T12:30:17.687Z,2.75
2023-02-25T12:33:19.981Z,7.95
2023-02-25T12:36:03.840Z,4.28
2023-02-25T12:39:15.253Z,4.03
2023-02-25T12:42:00.623Z,5.20
2023-02-25T12:44:52.791Z,6.13
2023-02-25T12:47:46.342Z,6.60
2023-02-25T12:50:38.189Z,5.57
2023-02-25T12:53:10.261Z,3.97
2023-02-25T12:55:40.049Z,4.18
2023-02-25T12:58:16.611Z,2.78
2023-02-25T13:01:04.420Z,5.28
2023-02-25T13:03:54.619Z,2.53
2023-02-25T13:06:24.090Z,5.63
2023-02-25T13:08:51.300Z,5.22
2023-02-25T13:11:27.998Z,4.45
2023-02-25T13:14:00.577Z,2.45
2023-02-25T13:16:39.600Z,3.67
2023-02-25T13:19:34.811Z,2.22
2023-02-25T13:22:14.117Z,4.50
2023-02-25T13:25:13.008Z,6.38
2023-02-25T13:27:48.942Z,3.00
2023-02-25T13:30:22.565Z,3.25
2023-02-25T13:33:11.328Z,2.25
2023-02-25T13:36:03.493Z,2.75
2023-02-25T13:38:45.243Z,3.47
2023-02-25T13:41:36.621Z,1.92
2023-02-25T13:44:09.671Z,4.03
2023-02-25T13:47:14.311Z,3.03
2023-02-25T13:49:59.760Z,5.22
2023-02-25T13:52:57.510Z,4.32
2023-02-25T13:55:52.369Z,4.75
2023-02-25T13:58:40.255Z,7.40
2023-02-25T14:01:45.849Z,6.13
2023-02-25T14:04:39.236Z,4.18
2023-02-25T14:07:13.643Z,4.95
2023-02-25T14:10:12.033Z,3.80
2023-02-25T14:13:17.936Z,3.25
2023-02-25T14:16:21.028Z,3.05
2023-02-25T14:19:02.205Z,3.50
2023-02-25T14:21:37.466Z,3.03
2023-02-25T14:24:21.902Z,4.82
2023-02-25T14:26:57.645Z,5.70
2023-02-25T14:29:26.016Z,6.10
2023-02-25T14:32:01.950Z,5.72
2023-02-25T14:34:29.414Z,6.30
2023-02-25T14:37:02.229Z,4.18
2023-02-25T14:40:07.262Z,2.35
2023-02-25T14:42:43.362Z,2.30
2023-02-25T14:45:10.775Z,1.83
2023-02-25T14:47:46.495Z,2.03
2023-02-25T14:50:19.366Z,2.60
2023-02-25T14:53:15.029Z,2.38
2023-02-25T14:56:03.503Z,3.65
2023-02-25T14:58:45.386Z,2.45
2023-02-25T15:01:15.202Z,2.83
2023-02-25T15:04:16.179Z,1.88
2023-02-25T15:06:56.819Z,3.47
2023-02-25T15:09:39.405Z,4.40
2023-02-25T15:12:24.775Z,7.38
2023-02-25T15:15:15.953Z,10.82
2023-02-25T15:17:45.631Z,10.27
2023-02-25T15:20:39.010Z,10.68
2023-02-25T15:23:13.019Z,10.25
2023-02-25T15:25:45.824Z,8.27
2023-02-25T15:28:30.654Z,8.75
2023-02-25T15:31:00.607Z,8.25
2023-02-25T15:33:40.473Z,6.75
2023-02-25T15:36:18.821Z,5.75
2023-02-25T15:38:54.107Z,6.32
2023-02-25T15:41:27.006Z,7.30
2023-02-25T15:43:57.272Z,6.57
2023-02-25T15:46:24.498Z,6.80
2023-02-25T15:49:20.048Z,5.60
2023-02-25T15:51:51.516Z,8.00
2023-02-25T15:54:30.389Z,8.05
2023-02-25T15:57:03.144Z,6.13
2023-02-25T15:59:46.689Z,7.35
2023-02-25T16:02:33.415Z,8.95
2023-02-25T16:05:18.755Z,7.55
2023-02-25T16:07:49.755Z,9.60
2023-02-25T16:10:25.461Z,11.65
2023-02-25T16:12:55.798Z,8.07
2023-02-25T16:15:32.955Z,9.60
2023-02-25T16:18:09.410Z,8.70
2023-02-25T16:20:46.777Z,10.60
2023-02-25T16:23:15.402Z,8.73
2023-02-25T16:26:11.187Z,9.10
2023-02-25T16:29:13.504Z,9.80
2023-02-25T16:32:08.541Z,11.88
2023-02-25T16:35:17.649Z,11.48
2023-02-25T16:37:57.191Z,8.95
2023-02-25T16:40:39.542Z,9.70
2023-02-25T16:43:07.620Z,9.93
2023-02-25T16:45:42.157Z,8.65
2023-02-25T16:48:18.485Z,8.40
2023-02-25T16:50:48.160Z,6.43
2023-02-25T16:53:21.905Z,9.82
2023-02-25T16:55:49.436Z,10.00
2023-02-25T16:58:19.142Z,13.43
2023-02-25T17:01:04.287Z,14.27
2023-02-25T17:03:42.693Z,10.50
2023-02-25T17:06:17.365Z,11.25
2023-02-25T17:08:48.436Z,9.65
2023-02-25T17:11:24.335Z,10.45
2023-02-25T17:13:54.597Z,12.43
2023-02-25T17:16:36.650Z,11.60
2023-02-25T17:19:08.038Z,13.30
2023-02-25T17:21:38.250Z,11.95
2023-02-25T17:24:11.238Z,11.00
2023-02-25T17:26:41.944Z,10.93
2023-02-25T17:29:14.933Z,14.73
2023-02-25T17:31:53.596Z,13.25
2023-02-25T17:34:29.813Z,14.23
2023-02-25T17:36:59.159Z,16.23
2023-02-25T17:39:26.763Z,19.90
2023-02-25T17:41:54.343Z,21.08
2023-02-25T17:44:39.837Z,17.08
2023-02-25T17:47:09.696Z,13.70
2023-02-25T17:49:38.064Z,9.57
2023-02-25T17:52:17.501Z,7.35
2023-02-25T17:54:52.161Z,12.48
2023-02-25T17:57:22.459Z,9.13
2023-02-25T17:59:52.454Z,13.52
2023-02-25T18:02:39.146Z,14.38
2023-02-25T18:05:21.630Z,16.88
2023-02-25T18:08:09.057Z,19.40
2023-02-25T18:10:36.281Z,24.17
2023-02-25T18:13:05.269Z,16.23
2023-02-25T18:15:34.173Z,18.05
2023-02-25T18:18:05.618Z,15.70
2023-02-25T18:20:41.249Z,15.45
2023-02-25T18:23:21.675Z,17.60
2023-02-25T18:26:09.335Z,15.57
2023-02-25T18:28:36.377Z,18.35
2023-02-25T18:31:03.433Z,18.45
2023-02-25T18:33:30.368Z,18.38
2023-02-25T18:35:57.688Z,24.30
2023-02-25T18:38:26.914Z,19.88
2023-02-25T18:40:55.550Z,17.58
2023-02-25T18:43:30.704Z,18.52
2023-02-25T18:45:58.318Z,17.08
2023-02-25T18:48:26.326Z,16.98
2023-02-25T18:50:55.039Z,20.35
2023-02-25T18:53:23.522Z,16.73
2023-02-25T18:55:52.577Z,19.60
2023-02-25T18:58:21.833Z,22.23
2023-02-25T19:00:58.402Z,20.35
2023-02-25T19:03:40.617Z,18.70
2023-02-25T19:06:07.692Z,20.23
2023-02-25T19:08:34.940Z,19.25
2023-02-25T19:11:02.164Z,15.25
2023-02-25T19:13:36.551Z,15.50
2023-02-25T19:16:03.929Z,17.75
2023-02-25T19:18:31.172Z,15.38
2023-02-25T19:20:58.389Z,20.00
2023-02-25T19:23:25.293Z,14.00
2023-02-25T19:26:00.546Z,19.40
2023-02-25T19:28:27.809Z,16.90
2023-02-25T19:30:55.680Z,15.75
2023-02-25T19:33:23.034Z,16.77
2023-02-25T19:35:49.872Z,19.08
2023-02-25T19:38:18.731Z,17.40
2023-02-25T19:40:47.674Z,18.80
2023-02-25T19:43:17.903Z,16.48
2023-02-25T19:45:45.275Z,17.15
2023-02-25T19:48:12.920Z,19.48
2023-02-25T19:50:41.184Z,19.92
2023-02-25T19:53:08.286Z,18.55
2023-02-25T19:55:35.722Z,20.08
2023-02-25T19:58:02.623Z,18.17
2023-02-25T20:00:29.530Z,13.93
2023-02-25T20:02:56.420Z,14.55
2023-02-25T20:05:23.842Z,13.55
2023-02-25T20:07:51.146Z,11.10
2023-02-25T20:10:18.862Z,13.07
2023-02-25T20:12:47.665Z,12.75
2023-02-25T20:15:15.200Z,16.08
2023-02-25T20:17:44.312Z,17.60
2023-02-25T20:20:12.655Z,14.23
2023-02-25T20:22:40.465Z,16.90
2023-02-25T20:25:10.187Z,14.88
2023-02-25T20:27:39.672Z,19.88
2023-02-25T20:30:07.345Z,18.80
2023-02-25T20:32:34.624Z,20.45
2023-02-25T20:35:02.045Z,16.65
2023-02-25T20:37:37.384Z,18.30
2023-02-25T20:40:08.180Z,17.35
2023-02-25T20:42:35.212Z,19.20
2023-02-25T20:45:02.646Z,15.75
2023-02-25T20:47:35.004Z,19.55
2023-02-25T20:50:02.321Z,18.15
2023-02-25T20:52:29.679Z,20.45
2023-02-25T20:54:58.044Z,16.33
2023-02-25T20:57:26.724Z,18.40
2023-02-25T20:59:54.352Z,21.33
2023-02-25T21:02:21.744Z,18.33
2023-02-25T21:04:49.066Z,23.05
2023-02-25T21:07:16.621Z,19.30
2023-02-25T21:09:43.892Z,17.48
2023-02-25T21:12:10.988Z,19.60
2023-02-25T21:14:38.311Z,19.75
2023-02-25T21:17:09.471Z,18.92
2023-02-25T21:19:38.784Z,20.80
2023-02-25T21:22:06.632Z,16.77
2023-02-25T21:24:33.784Z,17.02
2023-02-25T21:27:02.045Z,22.08
2023-02-25T21:29:29.013Z,18.08
2023-02-25T21:31:56.751Z,18.23
2023-02-25T21:34:23.968Z,17.33
2023-02-25T21:36:50.824Z,17.00
2023-02-25T21:39:18.291Z,19.23
2023-02-25T21:41:46.155Z,19.60
2023-02-25T21:44:13.956Z,17.38
2023-02-25T21:46:40.929Z,15.48
2023-02-25T21:49:10.506Z,19.60
2023-02-25T21:51:37.898Z,17.30
2023-02-25T21:54:04.899Z,16.65
2023-02-25T21:56:32.353Z,17.05
2023-02-25T21:59:01.821Z,15.57
2023-02-25T22:01:35.345Z,21.13
2023-02-25T22:04:03.368Z,17.92
2023-02-25T22:06:30.718Z,20.25
2023-02-25T22:08:58.437Z,16.23
2023-02-25T22:11:30.676Z,16.27
2023-02-25T22:14:00.200Z,15.70
2023-02-25T22:16:27.954Z,15.82
2023-02-25T22:18:55.570Z,18.67
2023-02-25T22:21:28.106Z,18.00
2023-02-25T22:23:56.182Z,15.57
2023-02-25T22:26:25.540Z,15.68
2023-02-25T22:28:57.353Z,18.92
2023-02-25T22:31:25.049Z,15.05
2023-02-25T22:33:52.565Z,16.77
2023-02-25T22:36:20.525Z,19.83
2023-02-25T22:38:48.563Z,18.25
2023-02-25T22:41:21.798Z,16.98
2023-02-25T22:43:49.296Z,18.42
2023-02-25T22:46:17.792Z,17.45
2023-02-25T22:48:46.818Z,18.30
2023-02-25T22:51:18.873Z,20.73
2023-02-25T22:53:45.702Z,19.35
2023-02-25T22:56:13.026Z,17.98
2023-02-25T22:58:40.800Z,16.60
2023-02-25T23:01:12.648Z,19.70
2023-02-25T23:03:39.660Z,22.75
2023-02-25T23:06:07.421Z,20.67
2023-02-25T23:08:35.589Z,21.00
2023-02-25T23:11:21.732Z,20.42
2023-02-25T23:13:52.577Z,22.50
2023-02-25T23:16:40.458Z,24.77
2023-02-25T23:19:09.701Z,21.00
2023-02-25T23:21:38.789Z,21.15
2023-02-25T23:24:07.732Z,18.67
2023-02-25T23:26:39.754Z,21.00
2023-02-25T23:29:09.061Z,21.73
2023-02-25T23:31:38.606Z,19.02
2023-02-25T23:34:09.349Z,20.02
2023-02-25T23:36:37.810Z,21.60
2023-02-25T23:39:05.655Z,16.98
2023-02-25T23:41:34.874Z,20.25
2023-02-25T23:44:02.133Z,18.13
2023-02-25T23:46:30.942Z,17.23
2023-02-25T23:49:00.299Z,17.08
2023-02-25T23:51:28.416Z,19.20
2023-02-25T23:53:57.619Z,17.95
2023-02-25T23:56:27.444Z,16.70
2023-02-25T23:58:55.341Z,19.00
